createdAt,value
2019-03-12T06:10:55.854Z,26.27
2019-03-12T06:13:27.529Z,29.55
2019-03-12T06:15:59.560Z,30.62
2019-03-12T06:18:31.838Z,28.35
2019-03-12T06:21:03.706Z,32.85
2019-03-12T06:23:35.314Z,27.50
2019-03-12T06:26:07.408Z,24.12
2019-03-12T06:28:41.932Z,24.95
2019-03-12T06:31:17.569Z,27.98
2019-03-12T06:33:48.200Z,26.10
2019-03-12T06:36:21.572Z,26.90
2019-03-12T06:38:55.943Z,24.80
2019-03-12T06:41:29.767Z,25.30
2019-03-12T06:44:03.025Z,26.68
2019-03-12T06:46:56.931Z,25.82
2019-03-12T06:49:32.151Z,24.80
2019-03-12T06:52:05.971Z,28.52
2019-03-12T06:54:42.155Z,23.05
2019-03-12T06:57:15.667Z,25.02
2019-03-12T06:59:48.670Z,22.07
2019-03-12T07:02:24.912Z,27.00
2019-03-12T07:04:58.205Z,24.85
2019-03-12T07:07:31.923Z,31.70
2019-03-12T07:10:05.407Z,24.52
2019-03-12T07:12:38.163Z,27.17
2019-03-12T07:15:13.055Z,28.67
2019-03-12T07:17:49.736Z,23.87
2019-03-12T07:20:22.852Z,27.00
2019-03-12T07:22:56.239Z,29.37
2019-03-12T07:25:29.473Z,28.32
2019-03-12T07:28:04.241Z,24.35
2019-03-12T07:30:37.377Z,25.12
2019-03-12T07:33:10.890Z,26.90
2019-03-12T07:35:43.811Z,28.32
2019-03-12T07:38:16.179Z,28.55
2019-03-12T07:40:49.121Z,29.15
2019-03-12T07:43:21.161Z,29.20
2019-03-12T07:45:54.174Z,27.85
2019-03-12T07:48:32.422Z,43.15
2019-03-12T07:51:04.022Z,29.60
2019-03-12T07:53:35.904Z,31.33
2019-03-12T07:56:12.325Z,29.15
2019-03-12T07:58:45.303Z,28.12
2019-03-12T08:01:37.716Z,34.00
2019-03-12T08:04:11.757Z,34.13
2019-03-12T08:06:44.880Z,29.27
2019-03-12T08:09:17.745Z,28.27
2019-03-12T08:11:51.371Z,29.52
2019-03-12T08:14:26.894Z,27.60
2019-03-12T08:16:59.955Z,31.55
2019-03-12T08:19:32.956Z,34.83
2019-03-12T08:22:06.051Z,32.67
2019-03-12T08:24:39.052Z,30.68
2019-03-12T08:27:12.651Z,33.53
2019-03-12T08:29:45.931Z,34.63
2019-03-12T08:32:20.061Z,35.78
2019-03-12T08:34:53.447Z,30.72
2019-03-12T08:37:27.141Z,28.85
2019-03-12T08:40:00.435Z,28.05
2019-03-12T08:42:33.935Z,29.25
2019-03-12T08:45:11.110Z,30.52
2019-03-12T08:47:43.573Z,31.75
2019-03-12T08:50:19.194Z,31.55
2019-03-12T08:52:52.054Z,32.33
2019-03-12T08:55:26.777Z,29.15
2019-03-12T08:58:09.291Z,33.78
2019-03-12T09:00:42.495Z,36.95
2019-03-12T09:03:15.872Z,30.02
2019-03-12T09:05:49.187Z,33.48
2019-03-12T09:08:22.789Z,35.08
2019-03-12T09:10:56.077Z,30.77
2019-03-12T09:13:29.187Z,30.25
2019-03-12T09:16:03.066Z,30.88
2019-03-12T09:18:36.603Z,36.55
2019-03-12T09:21:09.839Z,35.92
2019-03-12T09:23:43.204Z,30.60
2019-03-12T09:26:16.247Z,31.23
2019-03-12T09:28:49.758Z,35.75
2019-03-12T09:31:22.785Z,32.00
2019-03-12T09:33:56.465Z,36.40
2019-03-12T09:36:29.636Z,31.82
2019-03-12T09:39:03.158Z,30.70
2019-03-12T09:41:38.457Z,29.00
2019-03-12T09:44:12.043Z,37.20
2019-03-12T09:46:45.078Z,31.27
2019-03-12T09:49:16.953Z,34.60
2019-03-12T09:51:52.935Z,31.93
2019-03-12T09:54:26.769Z,27.07
2019-03-12T09:56:59.829Z,29.20
2019-03-12T09:59:33.455Z,35.10
2019-03-12T10:02:06.908Z,22.07
2019-03-12T10:04:42.477Z,24.50
2019-03-12T10:07:15.559Z,22.60
2019-03-12T10:09:49.367Z,23.73
2019-03-12T10:12:24.995Z,33.28
2019-03-12T10:14:58.497Z,23.12
2019-03-12T10:17:33.039Z,23.83
2019-03-12T10:20:07.145Z,27.35
2019-03-12T10:22:40.271Z,26.73
2019-03-12T10:25:13.337Z,41.65
2019-03-12T10:27:46.378Z,24.67
2019-03-12T10:30:20.129Z,29.25
2019-03-12T10:32:53.292Z,32.80
2019-03-12T10:35:26.690Z,30.75
2019-03-12T10:38:03.920Z,26.15
2019-03-12T10:40:37.818Z,26.97
2019-03-12T10:43:11.210Z,31.68
2019-03-12T10:45:44.521Z,25.25
2019-03-12T10:48:17.806Z,30.37
2019-03-12T10:50:50.533Z,41.20
2019-03-12T10:53:22.337Z,29.35
2019-03-12T10:55:54.616Z,35.38
2019-03-12T10:58:26.453Z,35.00
2019-03-12T11:00:58.346Z,37.60
2019-03-12T11:03:31.044Z,30.40
2019-03-12T11:06:03.293Z,32.48
2019-03-12T11:08:35.214Z,30.05
2019-03-12T11:11:11.120Z,82.20
2019-03-12T11:13:42.882Z,41.00
2019-03-12T11:16:15.107Z,30.48
2019-03-12T11:18:50.552Z,36.42
2019-03-12T11:21:22.672Z,40.45
2019-03-12T11:23:54.933Z,35.03
2019-03-12T11:26:28.735Z,43.13
2019-03-12T11:29:00.634Z,33.50
2019-03-12T11:31:32.574Z,35.48
2019-03-12T11:34:04.649Z,40.00
2019-03-12T11:36:36.588Z,39.95
2019-03-12T11:39:08.970Z,42.05
2019-03-12T11:41:41.020Z,40.10
2019-03-12T11:44:12.985Z,37.40
2019-03-12T11:46:46.111Z,38.95
2019-03-12T11:49:18.272Z,40.98
2019-03-12T11:51:50.258Z,41.37
2019-03-12T11:54:22.223Z,42.15
2019-03-12T11:56:54.265Z,37.00
2019-03-12T11:59:26.169Z,43.40
2019-03-12T12:01:57.997Z,63.70
2019-03-12T12:04:29.946Z,43.17
2019-03-12T12:07:01.853Z,51.40
2019-03-12T12:09:33.605Z,44.00
2019-03-12T12:12:05.816Z,38.55
2019-03-12T12:14:37.625Z,40.80
2019-03-12T12:17:09.288Z,45.03
2019-03-12T12:19:42.091Z,42.93
2019-03-12T12:22:13.944Z,49.18
2019-03-12T12:24:45.597Z,39.30
2019-03-12T12:27:18.148Z,45.28
2019-03-12T12:29:50.122Z,44.35
2019-03-12T12:32:22.264Z,45.95
2019-03-12T12:34:54.278Z,42.38
2019-03-12T12:37:26.131Z,46.30
2019-03-12T12:39:57.913Z,45.43
2019-03-12T12:42:29.807Z,44.90
2019-03-12T12:45:01.510Z,46.18
2019-03-12T12:47:33.357Z,55.48
2019-03-12T12:50:07.280Z,41.53
2019-03-12T12:52:39.068Z,57.43
2019-03-12T12:55:14.645Z,59.83
2019-03-12T12:57:46.717Z,49.18
2019-03-12T13:00:22.447Z,47.65
2019-03-12T13:02:54.368Z,70.03
2019-03-12T13:05:27.782Z,51.02
2019-03-12T13:07:59.538Z,50.48
2019-03-12T13:10:33.058Z,60.38
2019-03-12T13:13:05.078Z,48.58
2019-03-12T13:15:36.927Z,57.30
2019-03-12T13:18:18.215Z,54.18
2019-03-12T13:20:50.623Z,52.03
2019-03-12T13:23:22.178Z,58.05
2019-03-12T13:25:54.293Z,84.97
2019-03-12T13:28:45.174Z,53.52
2019-03-12T13:31:17.175Z,51.10
2019-03-12T13:33:48.999Z,52.10
2019-03-12T13:36:20.984Z,50.12
2019-03-12T13:38:53.110Z,56.35
2019-03-12T13:41:25.009Z,47.88
2019-03-12T13:43:56.873Z,43.52
2019-03-12T13:46:29.297Z,44.70
2019-03-12T13:49:01.192Z,47.93
2019-03-12T13:51:32.949Z,43.35
2019-03-12T13:54:05.690Z,39.42
2019-03-12T13:56:37.397Z,43.00
2019-03-12T13:59:09.514Z,43.87
2019-03-12T14:01:41.702Z,55.10
2019-03-12T14:04:13.738Z,38.88
2019-03-12T14:06:45.754Z,45.12
2019-03-12T14:09:32.916Z,39.38
2019-03-12T14:12:04.688Z,43.83
2019-03-12T14:14:36.780Z,46.70
2019-03-12T14:17:08.747Z,44.88
2019-03-12T14:19:40.475Z,44.48
2019-03-12T14:22:13.414Z,50.00
2019-03-12T14:24:45.401Z,52.27
2019-03-12T14:27:17.358Z,48.48
2019-03-12T14:29:52.536Z,47.50
2019-03-12T14:32:25.563Z,51.28
2019-03-12T14:34:57.949Z,53.42
2019-03-12T14:37:35.914Z,53.70
2019-03-12T14:40:08.082Z,52.08
2019-03-12T14:42:40.306Z,61.18
2019-03-12T14:45:13.927Z,48.98
2019-03-12T14:47:48.933Z,57.40
2019-03-12T14:50:21.595Z,54.03
2019-03-12T14:52:57.171Z,49.98
2019-03-12T14:55:30.216Z,52.30
2019-03-12T14:58:01.861Z,54.70
2019-03-12T15:00:33.960Z,53.15
2019-03-12T15:03:26.140Z,59.15
2019-03-12T15:06:17.337Z,51.15
2019-03-12T15:08:49.578Z,60.33
2019-03-12T15:11:21.315Z,56.20
2019-03-12T15:13:53.304Z,55.28
2019-03-12T15:16:25.272Z,52.90
2019-03-12T15:18:57.174Z,57.88
2019-03-12T15:21:29.076Z,52.23
2019-03-12T15:24:02.378Z,50.28
2019-03-12T15:26:34.443Z,54.27
2019-03-12T15:29:06.097Z,55.80
2019-03-12T15:31:38.440Z,57.78
2019-03-12T15:34:10.245Z,59.45
2019-03-12T15:36:45.343Z,53.65
2019-03-12T15:39:17.967Z,58.25
2019-03-12T15:41:49.920Z,53.13
2019-03-12T15:44:24.064Z,68.37
2019-03-12T15:46:57.772Z,58.30
2019-03-12T15:49:29.640Z,61.55
2019-03-12T15:52:01.637Z,68.30
2019-03-12T15:54:33.435Z,61.83
2019-03-12T15:57:05.658Z,62.65
2019-03-12T15:59:40.618Z,60.33
2019-03-12T16:02:12.372Z,63.00
2019-03-12T16:04:47.748Z,67.92
2019-03-12T16:07:20.277Z,59.75
2019-03-12T16:10:04.541Z,55.98
2019-03-12T16:12:36.257Z,57.13
2019-03-12T16:15:11.304Z,69.47
2019-03-12T16:17:43.021Z,68.87
2019-03-12T16:20:18.005Z,75.87
2019-03-12T16:22:50.008Z,81.17
2019-03-12T16:25:22.610Z,83.30
2019-03-12T16:27:54.268Z,81.67
2019-03-12T16:30:25.917Z,75.20
2019-03-12T16:32:58.793Z,80.30
2019-03-12T16:35:30.755Z,71.47
2019-03-12T16:38:03.495Z,67.55
2019-03-12T16:40:35.474Z,69.27
2019-03-12T16:43:07.570Z,67.92
2019-03-12T16:45:39.615Z,67.15
2019-03-12T16:48:11.348Z,66.75
2019-03-12T16:50:43.467Z,74.47
2019-03-12T16:53:15.554Z,66.50
2019-03-12T16:55:47.296Z,67.10
2019-03-12T16:58:19.881Z,61.80
2019-03-12T17:00:52.085Z,60.70
2019-03-12T17:03:34.011Z,65.80
2019-03-12T17:06:12.433Z,63.55
2019-03-12T17:08:44.340Z,63.87
2019-03-12T17:11:17.366Z,66.28
2019-03-12T17:13:49.542Z,62.85
2019-03-12T17:16:21.695Z,63.90
2019-03-12T17:18:53.414Z,63.05
2019-03-12T17:21:25.323Z,65.00
2019-03-12T17:24:06.358Z,68.22
2019-03-12T17:26:41.104Z,62.98
2019-03-12T17:29:13.062Z,64.07
2019-03-12T17:31:48.841Z,69.37
2019-03-12T17:34:34.944Z,62.17
2019-03-12T17:36:55.131Z,62.03
2019-03-12T17:39:26.928Z,61.50
2019-03-12T17:42:02.017Z,72.32
2019-03-12T17:44:34.168Z,65.03
2019-03-12T17:47:06.268Z,65.08
2019-03-12T17:49:38.002Z,72.35
2019-03-12T17:52:09.866Z,74.85
2019-03-12T17:54:42.129Z,72.72
2019-03-12T17:57:13.973Z,70.45
2019-03-12T18:00:06.066Z,77.10
2019-03-12T18:02:42.672Z,72.05
2019-03-12T18:05:13.985Z,73.70
2019-03-12T18:07:46.104Z,75.08
2019-03-12T18:10:20.040Z,71.67
2019-03-12T18:12:51.826Z,66.62
2019-03-12T18:15:24.019Z,64.12
2019-03-12T18:17:56.350Z,64.32
2019-03-12T18:20:27.976Z,71.95
2019-03-12T18:23:00.142Z,75.67
2019-03-12T18:25:35.067Z,74.53
2019-03-12T18:28:09.149Z,72.47
2019-03-12T18:30:40.971Z,76.45
2019-03-12T18:33:12.844Z,66.00
2019-03-12T18:35:44.453Z,78.35
2019-03-12T18:38:16.599Z,71.87
2019-03-12T18:40:48.518Z,70.45
2019-03-12T18:43:20.278Z,74.20
2019-03-12T18:45:52.633Z,73.87
2019-03-12T18:48:26.668Z,74.87
2019-03-12T18:50:58.524Z,78.05
2019-03-12T18:53:30.273Z,81.87
2019-03-12T18:56:03.971Z,78.07
2019-03-12T18:58:35.967Z,70.70
2019-03-12T19:01:08.488Z,72.35
2019-03-12T19:03:40.305Z,72.15
2019-03-12T19:06:12.754Z,72.27
2019-03-12T19:08:48.095Z,76.20
2019-03-12T19:11:18.025Z,79.92
2019-03-12T19:13:49.884Z,73.57
2019-03-12T19:16:21.801Z,74.55
2019-03-12T19:18:53.974Z,77.50
2019-03-12T19:21:27.509Z,74.03
2019-03-12T19:23:59.531Z,76.70
2019-03-12T19:26:31.435Z,70.25
2019-03-12T19:29:04.193Z,73.02
2019-03-12T19:31:37.400Z,72.67
2019-03-12T19:34:11.412Z,75.67
2019-03-12T19:36:43.204Z,72.53
2019-03-12T19:39:16.562Z,81.78
2019-03-12T19:41:48.345Z,70.40
2019-03-12T19:44:20.400Z,75.08
2019-03-12T19:46:52.474Z,75.28
2019-03-12T19:49:24.148Z,74.97
2019-03-12T19:51:55.893Z,66.07
2019-03-12T19:54:27.855Z,77.12
2019-03-12T19:56:59.740Z,78.47
2019-03-12T19:59:31.864Z,82.72
2019-03-12T20:02:15.632Z,75.95
2019-03-12T20:04:47.183Z,79.45
2019-03-12T20:07:11.670Z,78.47
2019-03-12T20:09:46.178Z,77.12
2019-03-12T20:12:22.359Z,81.32
2019-03-12T20:15:15.980Z,72.67
2019-03-12T20:17:52.493Z,75.45
2019-03-12T20:20:28.258Z,71.60
2019-03-12T20:23:04.218Z,84.15
2019-03-12T20:25:39.746Z,80.42
2019-03-12T20:28:15.741Z,82.50
2019-03-12T20:30:52.542Z,95.05
2019-03-12T20:33:28.464Z,77.95
2019-03-12T20:36:04.239Z,91.72
2019-03-12T20:38:40.070Z,78.00
2019-03-12T20:41:15.647Z,80.70
2019-03-12T20:43:51.471Z,77.35
2019-03-12T20:46:27.320Z,76.37
2019-03-12T20:49:10.859Z,78.12
2019-03-12T20:51:40.735Z,81.65
2019-03-12T20:54:16.736Z,80.72
2019-03-12T20:56:52.509Z,78.30
2019-03-12T20:59:28.671Z,78.72
2019-03-12T21:02:04.082Z,81.47
2019-03-12T21:04:39.857Z,76.12
2019-03-12T21:07:15.291Z,74.60
2019-03-12T21:09:51.154Z,89.47
2019-03-12T21:12:26.720Z,76.75
2019-03-12T21:15:02.491Z,70.78
2019-03-12T21:17:38.906Z,78.85
2019-03-12T21:20:15.915Z,77.20
2019-03-12T21:22:52.189Z,79.50
2019-03-12T21:25:28.412Z,76.40
2019-03-12T21:28:04.106Z,84.65
2019-03-12T21:30:37.109Z,80.47
2019-03-12T21:33:15.101Z,86.55
2019-03-12T21:35:43.454Z,78.37
2019-03-12T21:38:15.333Z,78.72
2019-03-12T21:40:47.315Z,81.40
2019-03-12T21:43:19.395Z,85.57
2019-03-12T21:45:52.082Z,74.32
2019-03-12T21:48:23.689Z,72.50
2019-03-12T21:50:55.686Z,70.28
2019-03-12T21:53:27.479Z,67.70
2019-03-12T21:55:59.369Z,76.65
2019-03-12T21:58:31.760Z,72.32
2019-03-12T22:01:04.453Z,71.25
2019-03-12T22:03:38.979Z,67.95
2019-03-12T22:06:10.721Z,67.00
2019-03-12T22:08:42.569Z,77.62
2019-03-12T22:11:14.565Z,71.15
2019-03-12T22:13:47.024Z,74.67
2019-03-12T22:16:18.925Z,84.85
2019-03-12T22:18:52.072Z,88.27
2019-03-12T22:21:25.129Z,72.80
2019-03-12T22:23:58.367Z,79.50
2019-03-12T22:26:29.999Z,77.85
2019-03-12T22:29:01.865Z,90.35
2019-03-12T22:31:33.991Z,94.67
2019-03-12T22:34:06.159Z,94.62
2019-03-12T22:36:37.813Z,98.20
2019-03-12T22:39:09.967Z,94.37
2019-03-12T22:41:41.809Z,90.17
2019-03-12T22:44:15.419Z,98.52
2019-03-12T22:46:47.268Z,88.75
2019-03-12T22:49:18.927Z,85.83
2019-03-12T22:51:50.955Z,87.78
2019-03-12T22:54:22.966Z,94.70
2019-03-12T22:56:54.879Z,102.92
2019-03-12T22:59:26.754Z,91.30
2019-03-12T23:01:58.731Z,99.97
2019-03-12T23:04:31.081Z,88.82
2019-03-12T23:07:02.804Z,90.07
2019-03-12T23:09:34.435Z,96.22
2019-03-12T23:12:06.616Z,99.03
2019-03-12T23:14:38.330Z,95.50
2019-03-12T23:17:10.468Z,99.10
2019-03-12T23:19:42.545Z,104.63
2019-03-12T23:22:14.777Z,96.63
2019-03-12T23:24:46.843Z,101.97
2019-03-12T23:27:18.732Z,104.23
2019-03-12T23:29:50.776Z,110.48
2019-03-12T23:32:22.736Z,104.70
2019-03-12T23:34:54.824Z,99.77
2019-03-12T23:37:27.760Z,101.85
2019-03-12T23:39:59.560Z,103.97
2019-03-12T23:42:31.344Z,104.12
2019-03-12T23:45:03.229Z,109.63
2019-03-12T23:47:34.891Z,112.03
2019-03-12T23:50:09.053Z,109.55
2019-03-12T23:52:40.808Z,103.70
2019-03-12T23:55:15.436Z,105.35
2019-03-12T23:57:49.192Z,115.15
